Time;durP1;ratioP1;P1;durP2;ratioP2;P2;SDS_P1;SDS_P2;PMS_P1;PMS_P2;Temp;Humidity;BMP_temperature;BMP_pressure;BME280_temperature;BME280_humidity;BME280_pressure;Samples;Min_cycle;Max_cycle;Signal;HPM_P1;HPM_P2
2023/03/22 00:01:53;;;;;;;;;;;;;;;4.88;64.41;99252.47;5001104;28;5185;-78
2023/03/22 00:04:20;;;;;;;;;;;;;;;4.89;64.32;99251.44;4986120;28;5118;-78
2023/03/22 00:06:46;;;;;;;;;;;;;;;4.91;64.33;99249.38;5004004;28;5016;-79
2023/03/22 00:09:13;;;;;;;;;;;;;;;4.89;64.24;99240.75;5004050;28;4817;-77
2023/03/22 00:11:39;;;;;;;;;;;;;;;4.86;64.25;99238.53;5004513;28;4964;-79
2023/03/22 00:14:06;;;;;;;;;;;;;;;4.88;64.31;99233.78;5003952;28;5034;-79
2023/03/22 00:16:33;;;;;;;;;;;;;;;4.91;64.19;99232.53;4998039;28;4959;-79
2023/03/22 00:18:59;;;;;;;;;;;;;;;4.95;64.01;99223.06;4995363;28;4954;-79
2023/03/22 00:21:26;;;;;;;;;;;;;;;4.94;64.13;99221.41;4997494;28;4698;-80
2023/03/22 00:23:53;;;;;;;;;;;;;;;4.91;64.11;99211.19;5004788;28;1673;-79
2023/03/22 00:26:19;;;;;;;;;;;;;;;4.83;64.55;99206.94;5002120;28;4704;-80
2023/03/22 00:28:46;;;;;;;;;;;;;;;4.80;64.44;99203.88;5001892;28;4899;-79
2023/03/22 00:31:12;;;;;;;;;;;;;;;4.82;64.51;99210.63;5004183;28;4691;-78
2023/03/22 00:33:39;;;;;;;;;;;;;;;4.89;64.42;99197.25;4998869;28;4695;-81
2023/03/22 00:36:06;;;;;;;;;;;;;;;4.86;64.42;99208.34;4984550;28;4604;-79
2023/03/22 00:38:35;;;;;;;;;;;;;;;4.81;64.48;99193.00;4984311;28;5115;-79
2023/03/22 00:41:02;;;;;;;;;;;;;;;4.83;64.53;99200.78;4981608;28;4883;-79
2023/03/22 00:43:29;;;;;;;;;;;;;;;4.81;64.54;99192.19;5002410;28;4843;-80
2023/03/22 00:45:55;;;;;;;;;;;;;;;4.80;64.69;99191.38;5001344;28;4842;-80
2023/03/22 00:48:22;;;;;;;;;;;;;;;4.82;64.65;99185.78;5004936;28;3912;-78
2023/03/22 00:50:48;;;;;;;;;;;;;;;4.80;64.62;99185.22;4981894;28;4918;-78
2023/03/22 00:53:15;;;;;;;;;;;;;;;4.79;64.60;99181.69;5001114;28;5126;-77
2023/03/22 00:55:42;;;;;;;;;;;;;;;4.79;64.56;99168.38;4996667;28;4972;-78
2023/03/22 00:58:08;;;;;;;;;;;;;;;4.77;64.67;99165.94;4985999;28;4875;-79
2023/03/22 01:00:35;;;;;;;;;;;;;;;4.74;64.76;99168.22;4997799;28;4771;-78
2023/03/22 01:03:03;;;;;;;;;;;;;;;4.79;64.66;99163.03;4998088;28;5047;-79
2023/03/22 01:05:30;;;;;;;;;;;;;;;4.76;64.70;99153.63;4988300;28;5196;-78
2023/03/22 01:07:57;;;;;;;;;;;;;;;4.76;64.74;99158.13;5000018;28;4843;-79
2023/03/22 01:10:24;;;;;;;;;;;;;;;4.78;64.38;99151.53;5001049;28;5140;-79
2023/03/22 01:12:51;;;;;;;;;;;;;;;4.75;64.59;99140.50;5000371;28;4702;-79
2023/03/22 01:15:17;;;;;;;;;;;;;;;4.72;64.74;99139.06;4998986;28;4913;-79
2023/03/22 01:17:44;;;;;;;;;;;;;;;4.75;64.68;99135.97;4990200;28;4670;-79
2023/03/22 01:20:10;;;;;;;;;;;;;;;4.79;64.49;99139.03;4982249;28;4672;-79
2023/03/22 01:22:37;;;;;;;;;;;;;;;4.76;64.59;99136.78;4993170;28;4866;-79
2023/03/22 01:25:04;;;;;;;;;;;;;;;4.72;64.54;99131.06;4993244;28;3862;-79
2023/03/22 01:27:30;;;;;;;;;;;;;;;4.78;64.52;99130.22;4980778;28;4313;-79
2023/03/22 01:29:57;;;;;;;;;;;;;;;4.78;64.49;99124.88;4992515;28;3817;-80
2023/03/22 01:32:23;;;;;;;;;;;;;;;4.78;64.52;99127.53;4983646;28;5116;-79
2023/03/22 01:34:51;;;;;;;;;;;;;;;4.77;64.51;99117.91;4996602;28;5084;-79
2023/03/22 01:37:17;;;;;;;;;;;;;;;4.81;64.35;99104.97;4994972;28;4484;-79
2023/03/22 01:39:44;;;;;;;;;;;;;;;4.91;63.88;99107.97;4982425;28;4817;-78
2023/03/22 01:42:10;;;;;;;;;;;;;;;4.83;64.28;99099.41;4985162;28;4361;-80
2023/03/22 01:44:37;;;;;;;;;;;;;;;4.87;64.29;99097.94;4997226;28;4749;-79
2023/03/22 01:47:04;;;;;;;;;;;;;;;4.79;64.45;99093.69;4993545;28;4840;-80
2023/03/22 01:49:30;;;;;;;;;;;;;;;4.88;64.09;99089.72;4996220;28;4820;-80
2023/03/22 01:51:57;;;;;;;;;;;;;;;4.85;63.96;99079.47;4977029;28;4512;-78
2023/03/22 01:54:23;;;;;;;;;;;;;;;4.82;64.44;99079.09;4981564;28;4531;-78
2023/03/22 01:56:50;;;;;;;;;;;;;;;4.83;64.28;99078.06;4993880;28;4692;-81
2023/03/22 01:59:16;;;;;;;;;;;;;;;4.80;64.50;99079.31;4993950;28;4719;-78
2023/03/22 02:01:45;;;;;;;;;;;;;;;4.81;64.46;99066.78;4992697;28;4014;-80
2023/03/22 02:04:12;;;;;;;;;;;;;;;4.84;64.33;99064.50;4992194;28;4073;-79
2023/03/22 02:06:38;;;;;;;;;;;;;;;4.87;64.19;99061.41;4997535;28;4664;-78
2023/03/22 02:09:05;;;;;;;;;;;;;;;4.90;64.12;99060.97;4999757;28;4662;-78
2023/03/22 02:11:32;;;;;;;;;;;;;;;4.39;63.83;98970.53;4993051;28;4660;-79
2023/03/22 02:13:58;;;;;;;;;;;;;;;4.96;63.81;99053.94;4984242;28;4668;-78
2023/03/22 02:16:25;;;;;;;;;;;;;;;4.95;63.76;99046.97;4980010;28;3861;-79
2023/03/22 02:18:51;;;;;;;;;;;;;;;4.93;63.84;99031.16;4993839;28;5027;-77
2023/03/22 02:21:18;;;;;;;;;;;;;;;4.98;63.67;99039.34;4995978;28;4846;-79
2023/03/22 02:23:45;;;;;;;;;;;;;;;5.03;63.65;99044.03;4996095;28;4666;-80
2023/03/22 02:26:12;;;;;;;;;;;;;;;5.06;63.34;99040.06;4991981;28;3967;-79
2023/03/22 02:28:39;;;;;;;;;;;;;;;5.08;63.46;99036.16;4979863;28;4611;-79
2023/03/22 02:31:05;;;;;;;;;;;;;;;5.12;63.22;99028.53;5000195;28;4899;-78
2023/03/22 02:33:32;;;;;;;;;;;;;;;5.03;63.61;99027.19;4992550;28;4741;-79
2023/03/22 02:35:59;;;;;;;;;;;;;;;5.06;63.51;99029.41;4996906;28;5020;-78
2023/03/22 02:38:26;;;;;;;;;;;;;;;5.03;63.46;99013.84;4996461;28;4511;-79
2023/03/22 02:40:52;;;;;;;;;;;;;;;5.04;63.54;99004.81;4982835;28;5039;-78
2023/03/22 02:43:19;;;;;;;;;;;;;;;5.03;63.51;99008.50;4990240;28;4602;-78
2023/03/22 02:45:46;;;;;;;;;;;;;;;5.07;63.50;99013.19;4981456;28;3963;-81
2023/03/22 02:48:12;;;;;;;;;;;;;;;5.10;63.30;99002.06;4996511;28;4929;-81
2023/03/22 02:50:39;;;;;;;;;;;;;;;5.04;63.61;99000.28;5001782;28;4192;-79
2023/03/22 02:53:05;;;;;;;;;;;;;;;5.05;63.41;98995.75;4992250;28;4819;-80
2023/03/22 02:55:32;;;;;;;;;;;;;;;5.14;63.21;98994.44;4997216;28;4788;-79
2023/03/22 02:57:59;;;;;;;;;;;;;;;5.17;63.05;98992.13;4993694;28;4692;-79
2023/03/22 03:00:25;;;;;;;;;;;;;;;5.13;63.14;98980.28;4994604;28;4711;-78
2023/03/22 03:02:52;;;;;;;;;;;;;;;5.18;62.98;98990.28;4976555;28;4018;-78
2023/03/22 03:05:20;;;;;;;;;;;;;;;5.20;62.95;98981.00;4998286;28;4900;-77
2023/03/22 03:07:47;;;;;;;;;;;;;;;5.11;63.33;98981.53;4993684;28;4854;-78
2023/03/22 03:10:13;;;;;;;;;;;;;;;5.11;63.67;98981.53;4991232;28;4937;-77
2023/03/22 03:12:40;;;;;;;;;;;;;;;5.23;62.99;98979.75;5006514;28;4553;-77
2023/03/22 03:15:06;;;;;;;;;;;;;;;5.19;63.21;98981.25;4990010;28;4925;-79
2023/03/22 03:17:33;;;;;;;;;;;;;;;5.20;63.23;98972.19;4988993;28;4850;-78
2023/03/22 03:19:59;;;;;;;;;;;;;;;5.31;62.38;98979.44;4987343;28;4902;-78
2023/03/22 03:22:26;;;;;;;;;;;;;;;5.28;62.77;98968.41;5006138;28;4956;-78
2023/03/22 03:24:52;;;;;;;;;;;;;;;5.23;63.02;98969.91;4985697;28;5040;-79
2023/03/22 03:27:20;;;;;;;;;;;;;;;5.27;63.22;98969.47;4985276;28;5233;-81
2023/03/22 03:29:47;;;;;;;;;;;;;;;5.27;62.87;98972.94;4986958;28;4632;-77
2023/03/22 03:32:13;;;;;;;;;;;;;;;5.30;62.77;98969.81;4982802;28;5409;-79
2023/03/22 03:34:40;;;;;;;;;;;;;;;5.32;62.77;98967.72;4996532;28;4759;-78
2023/03/22 03:37:07;;;;;;;;;;;;;;;5.28;62.90;98968.41;4985914;28;5048;-80
2023/03/22 03:39:34;;;;;;;;;;;;;;;5.30;62.82;98964.47;4980445;28;5249;-79
2023/03/22 03:42:00;;;;;;;;;;;;;;;5.23;63.26;98959.22;4997864;28;5442;-79
2023/03/22 03:44:27;;;;;;;;;;;;;;;5.31;62.75;98947.41;4998422;28;4986;-79
2023/03/22 03:46:54;;;;;;;;;;;;;;;5.19;63.25;98950.00;4978111;28;4850;-79
2023/03/22 03:49:21;;;;;;;;;;;;;;;5.28;63.19;98950.53;4985218;28;4751;-80
2023/03/22 03:51:47;;;;;;;;;;;;;;;5.22;63.18;98940.75;4986835;28;4642;-79
2023/03/22 03:54:14;;;;;;;;;;;;;;;5.32;62.80;98933.00;4990542;28;4886;-80
2023/03/22 03:56:40;;;;;;;;;;;;;;;5.34;62.76;98928.28;4989444;28;5059;-78
2023/03/22 03:59:08;;;;;;;;;;;;;;;5.24;62.93;98923.47;4997141;28;5394;-78
2023/03/22 04:01:34;;;;;;;;;;;;;;;5.30;62.95;98923.63;4980607;28;4811;-79
2023/03/22 04:04:01;;;;;;;;;;;;;;;5.27;63.00;98919.53;4994475;28;5032;-79
2023/03/22 04:06:27;;;;;;;;;;;;;;;5.37;62.76;98924.34;4992785;28;5474;-78
2023/03/22 04:08:55;;;;;;;;;;;;;;;5.41;62.56;98920.16;4997676;28;5699;-77
2023/03/22 04:11:21;;;;;;;;;;;;;;;5.30;62.91;98918.28;4996203;28;4990;-79
2023/03/22 04:14:13;;;;;;;;;;;;;;;5.35;62.95;98915.72;5000138;28;5025;-79
2023/03/22 04:17:05;;;;;;;;;;;;;;;5.34;62.79;98919.44;5001599;28;4759;-78
2023/03/22 04:19:57;;;;;;;;;;;;;;;5.36;62.78;98922.72;5004835;28;5737;-78
2023/03/22 04:22:49;;;;;;;;;;;;;;;5.40;62.71;98922.03;4999620;28;5012;-78
2023/03/22 04:25:42;;;;;;;;;;;;;;;5.34;62.83;98920.25;5002313;28;4972;-77
2023/03/22 04:28:34;;;;;;;;;;;;;;;5.37;62.75;98916.34;5001184;28;5450;-78
2023/03/22 04:31:26;;;;;;;;;;;;;;;5.48;62.54;98907.56;5000313;28;4874;-78
2023/03/22 04:34:18;;;;;;;;;;;;;;;5.31;62.93;98901.22;4995496;28;4859;-78
2023/03/22 04:37:10;;;;;;;;;;;;;;;5.31;62.97;98899.34;5003998;28;4952;-77
2023/03/22 04:40:05;;;;;;;;;;;;;;;5.49;62.53;98897.69;5002150;28;5381;-79
2023/03/22 04:42:57;;;;;;;;;;;;;;;5.36;62.68;98899.50;4998691;28;4863;-79
2023/03/22 04:45:49;;;;;;;;;;;;;;;5.35;62.91;98899.72;5003870;28;4972;-78
2023/03/22 04:48:41;;;;;;;;;;;;;;;5.35;63.01;98883.69;5001211;28;4775;-77
2023/03/22 04:51:33;;;;;;;;;;;;;;;5.50;62.47;98875.28;4994218;28;5060;-78
2023/03/22 04:54:25;;;;;;;;;;;;;;;5.49;62.53;98876.31;4998332;28;5133;-78
2023/03/22 04:57:17;;;;;;;;;;;;;;;5.49;62.39;98885.16;4997794;28;5131;-78
2023/03/22 05:00:09;;;;;;;;;;;;;;;5.40;62.53;98890.00;4997223;28;5008;-78
2023/03/22 05:03:02;;;;;;;;;;;;;;;5.35;62.85;98889.84;4997149;28;4878;-78
2023/03/22 05:05:55;;;;;;;;;;;;;;;5.46;62.50;98883.75;5000429;28;5438;-77
2023/03/22 05:08:46;;;;;;;;;;;;;;;5.36;62.82;98890.69;5004837;28;5477;-78
2023/03/22 05:11:39;;;;;;;;;;;;;;;5.27;63.28;98882.19;5008105;28;4868;-78
2023/03/22 05:14:31;;;;;;;;;;;;;;;5.35;62.91;98868.50;5005931;28;5111;-78
2023/03/22 05:17:23;;;;;;;;;;;;;;;5.27;63.11;98870.69;5005414;28;4968;-78
2023/03/22 05:20:15;;;;;;;;;;;;;;;5.26;63.39;98871.72;5003043;28;4905;-78
2023/03/22 05:23:08;;;;;;;;;;;;;;;5.30;63.02;98863.03;5003023;28;4810;-79
2023/03/22 05:26:00;;;;;;;;;;;;;;;5.32;62.95;98871.59;5006450;28;4892;-78
2023/03/22 05:28:52;;;;;;;;;;;;;;;5.37;62.92;98860.25;5004893;28;4830;-78
2023/03/22 05:31:44;;;;;;;;;;;;;;;5.37;62.94;98860.25;5000976;28;4831;-79
2023/03/22 05:34:36;;;;;;;;;;;;;;;5.23;63.32;98855.13;4993829;28;5371;-79
2023/03/22 05:37:28;;;;;;;;;;;;;;;5.34;63.07;98848.19;4999746;28;4928;-79
2023/03/22 05:40:20;;;;;;;;;;;;;;;5.33;63.04;98845.75;4999251;28;4860;-78
2023/03/22 05:43:12;;;;;;;;;;;;;;;5.29;63.21;98844.56;5004335;28;5133;-77
2023/03/22 05:45:40;;;;;;;;;;;;;;;5.31;63.24;98839.81;4997326;28;4802;-78
2023/03/22 05:48:07;;;;;;;;;;;;;;;5.35;62.87;98840.97;4996827;28;4948;-78
2023/03/22 05:50:59;;;;;;;;;;;;;;;5.34;63.04;98828.69;4991232;28;4804;-79
2023/03/22 05:53:52;;;;;;;;;;;;;;;5.34;62.82;98831.34;4986364;28;4554;-78
2023/03/22 05:56:44;;;;;;;;;;;;;;;5.26;63.22;98834.34;4985845;28;3832;-78
2023/03/22 05:59:31;;;;;;;;;;;;;;;5.31;63.15;98835.28;4980131;28;4802;-78
2023/03/22 06:02:18;;;;;;;;;;;;;;;5.31;63.05;98837.16;5001780;28;4579;-81
2023/03/22 06:05:04;;;;;;;;;;;;;;;5.36;62.89;98839.97;4997516;28;4729;-80
2023/03/22 06:07:41;;;;;;;;;;;;;;;5.29;63.03;98831.22;5001883;28;4582;-78
2023/03/22 06:10:09;;;;;;;;;;;;;;;5.29;63.04;98831.22;4984915;28;4794;-79
2023/03/22 06:12:38;;;;;;;;;;;;;;;5.32;63.06;98833.44;4983892;28;5008;-78
2023/03/22 06:15:05;;;;;;;;;;;;;;;5.31;63.01;98824.59;4990170;28;5060;-79
2023/03/22 06:17:33;;;;;;;;;;;;;;;5.30;63.03;98819.50;4989360;28;4911;-78
2023/03/22 06:20:07;;;;;;;;;;;;;;;5.33;63.08;98833.22;4984696;28;5202;-78
2023/03/22 06:22:36;;;;;;;;;;;;;;;5.31;62.96;98826.47;5006303;28;5005;-77
2023/03/22 06:25:03;;;;;;;;;;;;;;;5.18;63.43;98841.63;5000864;28;4735;-78
2023/03/22 06:27:32;;;;;;;;;;;;;;;5.16;63.53;98827.69;4994767;28;4425;-78
2023/03/22 06:29:59;;;;;;;;;;;;;;;5.24;63.48;98826.56;5000642;28;4797;-78
2023/03/22 06:32:25;;;;;;;;;;;;;;;5.23;63.24;98828.44;5006524;28;5178;-80
2023/03/22 06:34:52;;;;;;;;;;;;;;;5.24;63.26;98824.72;5005708;28;4632;-78
2023/03/22 06:37:19;;;;;;;;;;;;;;;5.19;63.47;98813.09;5004061;28;5182;-77
2023/03/22 06:39:48;;;;;;;;;;;;;;;5.17;63.51;98817.81;5005799;28;5237;-77
2023/03/22 06:42:15;;;;;;;;;;;;;;;5.20;63.49;98815.50;4985453;28;5033;-78
2023/03/22 06:44:43;;;;;;;;;;;;;;;5.32;63.22;98812.88;5004711;28;4786;-78
2023/03/22 06:47:10;;;;;;;;;;;;;;;5.33;63.04;98805.72;4996301;28;4651;-77
2023/03/22 06:49:37;;;;;;;;;;;;;;;5.25;63.27;98796.16;4985959;28;5012;-77
2023/03/22 06:52:03;;;;;;;;;;;;;;;5.24;63.17;98816.69;4994747;28;4238;-78
2023/03/22 06:54:30;;;;;;;;;;;;;;;5.21;63.45;98811.00;4997589;28;4650;-78
2023/03/22 06:56:57;;;;;;;;;;;;;;;5.29;63.04;98815.19;5004953;28;4140;-78
2023/03/22 06:59:24;;;;;;;;;;;;;;;5.24;63.33;98831.91;4996543;28;4885;-77
2023/03/22 07:01:50;;;;;;;;;;;;;;;5.29;63.20;98815.19;4992275;28;4862;-76
2023/03/22 07:04:18;;;;;;;;;;;;;;;5.19;63.47;98808.56;4993911;28;4631;-78
2023/03/22 07:06:45;;;;;;;;;;;;;;;5.22;63.36;98807.28;4990429;28;4922;-77
2023/03/22 07:09:17;;;;;;;;;;;;;;;5.19;63.47;98811.22;4991277;28;4576;-77
2023/03/22 07:11:43;;;;;;;;;;;;;;;5.22;63.29;98809.97;4988566;28;3884;-78
2023/03/22 07:14:10;;;;;;;;;;;;;;;5.24;63.29;98797.22;4991179;28;4270;-78
2023/03/22 07:16:36;;;;;;;;;;;;;;;5.21;63.33;98797.66;4985692;28;4325;-77
2023/03/22 07:19:03;;;;;;;;;;;;;;;5.15;63.42;98794.06;4982535;28;3853;-77
2023/03/22 07:21:30;;;;;;;;;;;;;;;5.21;63.37;98795.00;4995822;28;4751;-77
2023/03/22 07:23:59;;;;;;;;;;;;;;;5.18;63.56;98792.78;4994249;28;4901;-78
2023/03/22 07:26:25;;;;;;;;;;;;;;;5.16;63.54;98789.53;4998961;28;5044;-77
2023/03/22 07:28:52;;;;;;;;;;;;;;;5.14;63.73;98789.72;4997454;28;4727;-79
2023/03/22 07:31:19;;;;;;;;;;;;;;;5.06;63.93;98784.75;4992915;28;4725;-79
2023/03/22 07:33:47;;;;;;;;;;;;;;;5.05;63.65;98783.09;4990171;28;4877;-80
2023/03/22 07:36:13;;;;;;;;;;;;;;;5.16;63.75;98793.00;4987680;28;3965;-77
2023/03/22 07:38:40;;;;;;;;;;;;;;;5.15;63.44;98796.72;4975908;28;4445;-77
2023/03/22 07:41:07;;;;;;;;;;;;;;;5.16;63.88;98794.84;4993263;28;4487;-79
2023/03/22 07:43:33;;;;;;;;;;;;;;;5.13;63.61;98790.78;4996223;28;3840;-78
2023/03/22 07:46:00;;;;;;;;;;;;;;;5.12;63.87;98793.69;4988027;28;4780;-78
2023/03/22 07:48:27;;;;;;;;;;;;;;;5.09;63.93;98788.78;4994632;28;4061;-79
2023/03/22 07:50:54;;;;;;;;;;;;;;;5.09;63.73;98794.13;4990223;28;4510;-77
2023/03/22 07:53:21;;;;;;;;;;;;;;;5.10;63.76;98793.09;4989971;28;4879;-78
2023/03/22 07:55:47;;;;;;;;;;;;;;;5.12;63.69;98791.03;4987449;28;4594;-79
2023/03/22 07:58:14;;;;;;;;;;;;;;;5.15;63.60;98791.38;4987633;28;3929;-78
2023/03/22 08:00:40;;;;;;;;;;;;;;;5.11;63.79;98781.38;4992292;28;4575;-79
2023/03/22 08:03:08;;;;;;;;;;;;;;;5.14;63.84;98772.91;4976298;28;5135;-78
2023/03/22 08:05:34;;;;;;;;;;;;;;;5.13;63.73;98766.75;4986195;28;4482;-78
2023/03/22 08:08:01;;;;;;;;;;;;;;;5.19;63.42;98768.53;4997779;28;5088;-79
2023/03/22 08:10:27;;;;;;;;;;;;;;;5.18;63.53;98752.75;4996612;28;4979;-79
2023/03/22 08:12:54;;;;;;;;;;;;;;;5.05;64.04;98740.41;4993705;28;4248;-79
2023/03/22 08:15:20;;;;;;;;;;;;;;;5.10;63.85;98737.88;4991446;28;4934;-78
2023/03/22 08:17:48;;;;;;;;;;;;;;;5.00;64.01;98734.94;4993967;28;4921;-78
2023/03/22 08:20:17;;;;;;;;;;;;;;;5.06;63.85;98726.03;4992642;28;5052;-78
2023/03/22 08:22:44;;;;;;;;;;;;;;;5.05;63.87;98719.06;4994508;28;5027;-78
2023/03/22 08:25:10;;;;;;;;;;;;;;;5.02;64.07;98711.50;4986333;28;5025;-78
2023/03/22 08:27:37;;;;;;;;;;;;;;;5.05;64.07;98704.91;4998255;28;4407;-79
2023/03/22 08:30:04;;;;;;;;;;;;;;;5.00;64.01;98700.28;4982075;28;4977;-77
2023/03/22 08:32:30;;;;;;;;;;;;;;;5.03;64.03;98704.31;4997596;28;5055;-79
2023/03/22 08:34:57;;;;;;;;;;;;;;;4.98;64.23;98703.16;4999231;28;4939;-78
2023/03/22 08:37:24;;;;;;;;;;;;;;;5.01;64.23;98707.22;5000749;28;4890;-79
2023/03/22 08:39:50;;;;;;;;;;;;;;;5.02;63.95;98711.50;4999017;28;4842;-78
2023/03/22 08:42:17;;;;;;;;;;;;;;;5.04;63.98;98716.63;4985365;28;4870;-79
2023/03/22 08:44:44;;;;;;;;;;;;;;;5.04;64.06;98719.28;4994740;28;4862;-78
2023/03/22 08:47:11;;;;;;;;;;;;;;;5.04;63.91;98712.09;4998874;28;4935;-79
2023/03/22 08:49:38;;;;;;;;;;;;;;;5.02;63.97;98703.50;4997200;28;4983;-78
2023/03/22 08:52:06;;;;;;;;;;;;;;;5.08;63.86;98705.25;4985191;28;5054;-79
2023/03/22 08:54:32;;;;;;;;;;;;;;;5.12;63.58;98703.78;4974898;28;5039;-80
2023/03/22 08:56:59;;;;;;;;;;;;;;;5.03;63.92;98702.47;4972388;28;3982;-77
2023/03/22 08:59:26;;;;;;;;;;;;;;;5.01;64.01;98691.22;4999200;28;4945;-79
2023/03/22 09:01:52;;;;;;;;;;;;;;;4.98;64.20;98694.34;4983301;28;4908;-77
2023/03/22 09:04:19;;;;;;;;;;;;;;;5.04;63.90;98690.75;4977889;28;4792;-77
2023/03/22 09:06:45;;;;;;;;;;;;;;;4.98;64.03;98681.00;4994956;28;5049;-78
2023/03/22 09:09:12;;;;;;;;;;;;;;;5.01;64.13;98676.00;4998424;28;5033;-78
2023/03/22 09:11:40;;;;;;;;;;;;;;;5.00;64.08;98668.25;5000387;28;5059;-78
2023/03/22 09:14:06;;;;;;;;;;;;;;;5.01;64.07;98660.00;4998763;28;3565;-78
2023/03/22 09:16:33;;;;;;;;;;;;;;;4.96;64.28;98653.72;4996585;28;5150;-78
2023/03/22 09:19:00;;;;;;;;;;;;;;;4.99;64.04;98656.75;4983447;28;4903;-79
2023/03/22 09:21:28;;;;;;;;;;;;;;;5.01;64.36;98657.34;4981030;28;5305;-80
2023/03/22 09:23:55;;;;;;;;;;;;;;;5.08;63.92;98648.41;5000380;28;5069;-77
2023/03/22 09:26:21;;;;;;;;;;;;;;;5.04;63.93;98641.91;4979386;28;4197;-77
2023/03/22 09:28:48;;;;;;;;;;;;;;;4.95;64.23;98644.91;4992920;28;4976;-78
2023/03/22 09:31:15;;;;;;;;;;;;;;;4.93;64.33;98641.66;4976563;28;5037;-79
2023/03/22 09:33:41;;;;;;;;;;;;;;;4.95;64.14;98642.25;4989230;28;4668;-78
2023/03/22 09:36:08;;;;;;;;;;;;;;;4.97;64.17;98640.16;4990989;28;4899;-80
2023/03/22 09:38:35;;;;;;;;;;;;;;;4.98;64.13;98641.78;4976270;28;4047;-77
2023/03/22 09:41:01;;;;;;;;;;;;;;;5.04;63.98;98645.38;4979239;28;4895;-79
2023/03/22 09:43:28;;;;;;;;;;;;;;;4.96;64.14;98643.06;4984623;28;4715;-77
2023/03/22 09:45:54;;;;;;;;;;;;;;;4.94;64.26;98639.78;4970799;28;4737;-80
2023/03/22 09:48:21;;;;;;;;;;;;;;;4.95;64.39;98633.44;4991888;28;4839;-79
2023/03/22 09:50:48;;;;;;;;;;;;;;;3.83;64.41;98460.84;4989512;28;3468;-78
2023/03/22 09:53:14;;;;;;;;;;;;;;;4.98;64.17;98625.78;4989125;28;4886;-78
2023/03/22 09:55:41;;;;;;;;;;;;;;;4.93;64.41;98604.31;4999108;28;4907;-78
2023/03/22 09:58:08;;;;;;;;;;;;;;;4.93;64.43;98598.97;5001764;28;4914;-77
2023/03/22 10:00:34;;;;;;;;;;;;;;;4.93;64.45;98603.50;4986095;28;4887;-78
2023/03/22 10:03:02;;;;;;;;;;;;;;;4.91;64.43;98602.91;4999251;28;5065;-78
2023/03/22 10:05:28;;;;;;;;;;;;;;;4.93;64.29;98608.84;5001118;28;4907;-77
2023/03/22 10:07:55;;;;;;;;;;;;;;;4.89;64.54;98608.47;5002905;28;4993;-78
2023/03/22 10:10:21;;;;;;;;;;;;;;;4.93;64.42;98614.16;4986557;28;5070;-78
2023/03/22 10:12:48;;;;;;;;;;;;;;;4.93;64.44;98598.97;5004006;28;4838;-77
2023/03/22 10:15:14;;;;;;;;;;;;;;;5.00;64.20;98602.34;5000534;28;4985;-77
2023/03/22 10:17:41;;;;;;;;;;;;;;;4.94;64.46;98595.28;4999903;28;4776;-78
2023/03/22 10:20:08;;;;;;;;;;;;;;;4.95;64.41;98593.41;5001409;28;4911;-78
2023/03/22 10:22:34;;;;;;;;;;;;;;;4.91;64.42;98593.06;4996575;28;4550;-78
2023/03/22 10:25:01;;;;;;;;;;;;;;;4.94;64.43;98584.59;4982909;28;4741;-78
2023/03/22 10:27:28;;;;;;;;;;;;;;;4.92;64.65;98580.53;4999975;28;4925;-77
2023/03/22 10:29:54;;;;;;;;;;;;;;;4.97;64.49;98583.31;4999553;28;4754;-78
2023/03/22 10:32:21;;;;;;;;;;;;;;;4.99;64.29;98578.56;4997656;28;4874;-78
2023/03/22 10:34:48;;;;;;;;;;;;;;;4.91;64.73;98565.56;5000254;28;5033;-78
2023/03/22 10:37:15;;;;;;;;;;;;;;;4.89;64.68;98563.13;4998666;28;5072;-77
2023/03/22 10:39:41;;;;;;;;;;;;;;;4.88;64.59;98558.84;4999750;28;4767;-80
2023/03/22 10:42:08;;;;;;;;;;;;;;;4.92;64.49;98554.66;4990402;28;4502;-79
2023/03/22 10:44:35;;;;;;;;;;;;;;;4.93;64.36;98542.13;4972574;28;3899;-77
2023/03/22 10:47:06;;;;;;;;;;;;;;;4.90;64.54;98551.41;4990624;28;4874;-78
2023/03/22 10:49:33;;;;;;;;;;;;;;;4.90;64.62;98537.25;4991342;28;3814;-79
2023/03/22 10:52:00;;;;;;;;;;;;;;;4.88;64.64;98532.19;4991470;28;3834;-79
2023/03/22 10:54:26;;;;;;;;;;;;;;;4.93;64.47;98529.59;4975466;28;3865;-80
2023/03/22 10:56:53;;;;;;;;;;;;;;;4.91;64.79;98526.38;4976082;28;4774;-77
2023/03/22 10:59:20;;;;;;;;;;;;;;;4.90;64.45;98530.06;4990891;28;4718;-77
2023/03/22 11:01:49;;;;;;;;;;;;;;;4.96;64.39;98525.66;4990610;28;4716;-78
2023/03/22 11:04:15;;;;;;;;;;;;;;;4.89;64.72;98512.44;4981632;28;4890;-77
2023/03/22 11:06:43;;;;;;;;;;;;;;;4.95;64.24;98508.03;4998592;28;4958;-79
2023/03/22 11:09:10;;;;;;;;;;;;;;;4.96;64.27;98504.31;4982906;28;4936;-76
2023/03/22 11:11:37;;;;;;;;;;;;;;;4.91;64.46;98505.03;4997101;28;4902;-79
2023/03/22 11:14:04;;;;;;;;;;;;;;;4.95;64.62;98500.03;4999453;28;4892;-80
2023/03/22 11:16:30;;;;;;;;;;;;;;;4.89;64.62;98499.13;4998674;28;4663;-78
2023/03/22 11:18:57;;;;;;;;;;;;;;;4.89;64.66;98492.97;4998854;28;4608;-82
2023/03/22 11:21:25;;;;;;;;;;;;;;;4.91;64.71;98496.19;5000305;28;5129;-77
2023/03/22 11:23:52;;;;;;;;;;;;;;;4.91;64.70;98493.53;4997604;28;4871;-79
2023/03/22 11:26:18;;;;;;;;;;;;;;;4.89;64.64;98487.63;4996456;28;4875;-78
2023/03/22 11:28:45;;;;;;;;;;;;;;;4.87;64.79;98487.84;4998578;28;4720;-79
2023/03/22 11:31:12;;;;;;;;;;;;;;;4.88;64.86;98483.31;4996210;28;4649;-79
2023/03/22 11:33:38;;;;;;;;;;;;;;;4.87;64.86;98481.72;4982926;28;4965;-77
2023/03/22 11:36:05;;;;;;;;;;;;;;;4.94;64.68;98475.22;5001602;28;5071;-79
2023/03/22 11:38:31;;;;;;;;;;;;;;;4.92;64.92;98465.84;5003765;28;5074;-78
2023/03/22 11:40:58;;;;;;;;;;;;;;;4.90;64.81;98455.38;4999953;28;4879;-78
2023/03/22 11:43:24;;;;;;;;;;;;;;;4.91;64.75;98458.84;4997896;28;5188;-77
2023/03/22 11:45:51;;;;;;;;;;;;;;;4.94;64.78;98450.38;4994798;28;5035;-76
2023/03/22 11:48:17;;;;;;;;;;;;;;;4.89;64.96;98443.09;4999565;28;5000;-75
2023/03/22 11:50:44;;;;;;;;;;;;;;;4.88;64.92;98440.66;4996250;28;5001;-78
2023/03/22 11:53:11;;;;;;;;;;;;;;;4.89;64.93;98440.44;4999649;28;4988;-77
2023/03/22 11:55:38;;;;;;;;;;;;;;;4.89;65.00;98431.63;4979867;28;4952;-78
2023/03/22 11:58:04;;;;;;;;;;;;;;;4.88;64.83;98428.16;4987644;28;4976;-79
2023/03/22 12:00:31;;;;;;;;;;;;;;;4.89;64.95;98426.28;4999649;28;4970;-78
2023/03/22 12:02:57;;;;;;;;;;;;;;;5.02;64.61;98426.00;5000362;28;4882;-77
2023/03/22 12:05:26;;;;;;;;;;;;;;;5.03;64.44;98414.31;4985918;28;5119;-76
2023/03/22 12:07:52;;;;;;;;;;;;;;;4.91;65.00;98401.00;4996575;28;4897;-77
2023/03/22 12:10:19;;;;;;;;;;;;;;;4.97;64.88;98404.56;4997389;28;4827;-79
2023/03/22 12:12:45;;;;;;;;;;;;;;;4.90;65.01;98388.69;4997892;28;4975;-79
2023/03/22 12:15:12;;;;;;;;;;;;;;;4.87;65.12;98391.81;4981048;28;4925;-79
2023/03/22 12:17:38;;;;;;;;;;;;;;;4.89;65.17;98392.41;4994523;28;5093;-78
2023/03/22 12:20:07;;;;;;;;;;;;;;;4.93;65.00;98374.88;4996607;28;4923;-78
2023/03/22 12:22:34;;;;;;;;;;;;;;;4.90;65.03;98378.03;5002022;28;5099;-78
2023/03/22 12:25:02;;;;;;;;;;;;;;;4.89;65.11;98368.41;4998666;28;4826;-77
2023/03/22 12:27:28;;;;;;;;;;;;;;;5.11;64.29;98368.56;5000160;28;4231;-77
2023/03/22 12:29:55;;;;;;;;;;;;;;;5.42;63.39;98361.16;4994838;28;4993;-76
2023/03/22 12:32:23;;;;;;;;;;;;;;;5.23;63.77;98353.34;4983925;28;4964;-78
2023/03/22 12:34:49;;;;;;;;;;;;;;;5.13;64.25;98352.31;4998454;28;5071;-76
2023/03/22 12:37:16;;;;;;;;;;;;;;;5.01;64.68;98347.84;5000201;28;4918;-78
2023/03/22 12:39:42;;;;;;;;;;;;;;;4.97;64.84;98346.69;4999748;28;5130;-79
2023/03/22 12:42:09;;;;;;;;;;;;;;;5.04;64.70;98341.22;4999222;28;4956;-78
2023/03/22 12:44:39;;;;;;;;;;;;;;;5.11;64.41;98341.88;4994199;28;4923;-77
2023/03/22 12:47:06;;;;;;;;;;;;;;;5.15;64.20;98332.38;4998028;28;4739;-78
2023/03/22 12:49:33;;;;;;;;;;;;;;;5.19;64.11;98330.81;4989983;28;5099;-79
2023/03/22 12:51:59;;;;;;;;;;;;;;;5.28;64.05;98336.59;4989267;28;4017;-77
2023/03/22 12:54:26;;;;;;;;;;;;;;;5.22;63.99;98321.53;4989860;28;4996;-77
2023/03/22 12:56:53;;;;;;;;;;;;;;;5.25;63.94;98318.38;4987098;28;3841;-77
2023/03/22 12:59:19;;;;;;;;;;;;;;;5.28;63.84;98312.56;4986495;28;4802;-77
2023/03/22 13:01:51;;;;;;;;;;;;;;;5.20;64.27;98312.94;4989547;28;4846;-80
2023/03/22 13:04:17;;;;;;;;;;;;;;;5.19;64.06;98298.81;4993240;28;5112;-77
2023/03/22 13:06:44;;;;;;;;;;;;;;;5.13;64.32;98294.44;4989163;28;5044;-78
2023/03/22 13:09:11;;;;;;;;;;;;;;;5.23;64.12;98293.78;4987928;28;4627;-76
2023/03/22 13:11:38;;;;;;;;;;;;;;;5.23;64.16;98280.44;4992640;28;5008;-79
2023/03/22 13:14:04;;;;;;;;;;;;;;;5.20;64.34;98276.41;4974698;28;4956;-78
2023/03/22 13:16:32;;;;;;;;;;;;;;;5.29;64.13;98268.81;4973312;28;4415;-77
2023/03/22 13:18:58;;;;;;;;;;;;;;;5.31;63.90;98257.91;4991848;28;5111;-78
2023/03/22 13:21:37;;;;;;;;;;;;;;;5.14;64.44;98263.22;4986426;28;5032;-77